sensor_id;sensor_type;location;lat;lon;timestamp;temperature;humidity
49236;DHT22;35067;48.134;8.378;2024-01-07T00:00:13;3.20;99.90
49236;DHT22;35067;48.134;8.378;2024-01-07T00:01:16;3.30;99.90
49236;DHT22;35067;48.134;8.378;2024-01-07T00:02:19;3.20;99.90
49236;DHT22;35067;48.134;8.378;2024-01-07T00:03:19;3.20;99.90
49236;DHT22;35067;48.134;8.378;2024-01-07T00:04:20;3.20;99.90
49236;DHT22;35067;48.134;8.378;2024-01-07T00:05:21;3.30;99.90
49236;DHT22;35067;48.134;8.378;2024-01-07T00:06:21;3.30;99.90
49236;DHT22;35067;48.134;8.378;2024-01-07T00:07:23;3.20;99.90
49236;DHT22;35067;48.134;8.378;2024-01-07T00:08:23;3.20;99.90
49236;DHT22;35067;48.134;8.378;2024-01-07T00:09:24;3.20;99.90
49236;DHT22;35067;48.134;8.378;2024-01-07T00:10:24;3.20;99.90
49236;DHT22;35067;48.134;8.378;2024-01-07T00:11:25;3.20;99.90
49236;DHT22;35067;48.134;8.378;2024-01-07T00:12:26;3.10;99.90
49236;DHT22;35067;48.134;8.378;2024-01-07T00:13:27;3.10;99.90
49236;DHT22;35067;48.134;8.378;2024-01-07T00:14:27;3.20;99.90
49236;DHT22;35067;48.134;8.378;2024-01-07T00:15:28;3.30;99.90
49236;DHT22;35067;48.134;8.378;2024-01-07T00:16:29;3.30;99.90
49236;DHT22;35067;48.134;8.378;2024-01-07T00:17:29;3.30;99.90
49236;DHT22;35067;48.134;8.378;2024-01-07T00:18:30;3.40;99.90
49236;DHT22;35067;48.134;8.378;2024-01-07T00:19:30;3.40;99.90
49236;DHT22;35067;48.134;8.378;2024-01-07T00:20:31;3.40;99.90
49236;DHT22;35067;48.134;8.378;2024-01-07T00:21:32;3.40;99.90
49236;DHT22;35067;48.134;8.378;2024-01-07T00:22:33;3.40;99.90
49236;DHT22;35067;48.134;8.378;2024-01-07T00:23:34;3.30;99.90
49236;DHT22;35067;48.134;8.378;2024-01-07T00:24:34;3.30;99.90
49236;DHT22;35067;48.134;8.378;2024-01-07T00:25:35;3.30;99.90
49236;DHT22;35067;48.134;8.378;2024-01-07T00:26:36;3.20;99.90
49236;DHT22;35067;48.134;8.378;2024-01-07T00:27:36;3.20;99.90
49236;DHT22;35067;48.134;8.378;2024-01-07T00:28:37;3.20;99.90
49236;DHT22;35067;48.134;8.378;2024-01-07T00:29:37;3.20;99.90
49236;DHT22;35067;48.134;8.378;2024-01-07T00:30:38;3.10;99.90
49236;DHT22;35067;48.134;8.378;2024-01-07T00:31:39;3.10;99.90
49236;DHT22;35067;48.134;8.378;2024-01-07T00:32:39;3.10;99.90
49236;DHT22;35067;48.134;8.378;2024-01-07T00:33:40;3.20;99.90
49236;DHT22;35067;48.134;8.378;2024-01-07T00:34:41;3.10;99.90
49236;DHT22;35067;48.134;8.378;2024-01-07T00:35:42;3.10;99.90
49236;DHT22;35067;48.134;8.378;2024-01-07T00:36:42;3.10;99.90
49236;DHT22;35067;48.134;8.378;2024-01-07T00:37:43;3.10;99.90
49236;DHT22;35067;48.134;8.378;2024-01-07T00:38:44;3.10;99.90
49236;DHT22;35067;48.134;8.378;2024-01-07T00:39:45;3.10;99.90
49236;DHT22;35067;48.134;8.378;2024-01-07T00:40:46;3.20;99.90
49236;DHT22;35067;48.134;8.378;2024-01-07T00:41:46;3.20;99.90
49236;DHT22;35067;48.134;8.378;2024-01-07T00:42:47;3.10;99.90
49236;DHT22;35067;48.134;8.378;2024-01-07T00:43:48;3.20;99.90
49236;DHT22;35067;48.134;8.378;2024-01-07T00:44:48;3.20;99.90
49236;DHT22;35067;48.134;8.378;2024-01-07T00:45:49;3.10;99.90
49236;DHT22;35067;48.134;8.378;2024-01-07T00:46:50;3.20;99.90
49236;DHT22;35067;48.134;8.378;2024-01-07T00:47:50;3.20;99.90
49236;DHT22;35067;48.134;8.378;2024-01-07T00:48:52;3.10;99.90
49236;DHT22;35067;48.134;8.378;2024-01-07T00:49:53;3.00;99.90
49236;DHT22;35067;48.134;8.378;2024-01-07T00:50:53;3.00;99.90
49236;DHT22;35067;48.134;8.378;2024-01-07T00:51:55;3.00;99.90
49236;DHT22;35067;48.134;8.378;2024-01-07T00:52:56;3.00;99.90
49236;DHT22;35067;48.134;8.378;2024-01-07T00:53:56;2.90;99.90
49236;DHT22;35067;48.134;8.378;2024-01-07T00:54:57;3.00;99.90
49236;DHT22;35067;48.134;8.378;2024-01-07T00:55:58;3.00;99.90
49236;DHT22;35067;48.134;8.378;2024-01-07T00:56:58;3.00;99.90
49236;DHT22;35067;48.134;8.378;2024-01-07T00:57:59;3.00;99.90
49236;DHT22;35067;48.134;8.378;2024-01-07T00:59:00;3.00;99.90
49236;DHT22;35067;48.134;8.378;2024-01-07T01:00:05;3.00;99.90
49236;DHT22;35067;48.134;8.378;2024-01-07T01:01:06;3.10;99.90
49236;DHT22;35067;48.134;8.378;2024-01-07T01:02:07;3.10;99.90
49236;DHT22;35067;48.134;8.378;2024-01-07T01:03:07;3.00;99.90
49236;DHT22;35067;48.134;8.378;2024-01-07T01:04:08;3.10;99.90
49236;DHT22;35067;48.134;8.378;2024-01-07T01:05:09;3.00;99.90
49236;DHT22;35067;48.134;8.378;2024-01-07T01:06:09;3.00;99.90
49236;DHT22;35067;48.134;8.378;2024-01-07T01:07:10;3.00;99.90
49236;DHT22;35067;48.134;8.378;2024-01-07T01:08:11;2.90;99.90
49236;DHT22;35067;48.134;8.378;2024-01-07T01:09:12;3.00;99.90
49236;DHT22;35067;48.134;8.378;2024-01-07T01:10:12;3.00;99.90
49236;DHT22;35067;48.134;8.378;2024-01-07T01:11:17;2.90;99.90
49236;DHT22;35067;48.134;8.378;2024-01-07T01:12:17;3.00;99.90
49236;DHT22;35067;48.134;8.378;2024-01-07T01:13:18;2.90;99.90
49236;DHT22;35067;48.134;8.378;2024-01-07T01:14:19;2.90;99.90
49236;DHT22;35067;48.134;8.378;2024-01-07T01:15:20;2.90;99.90
49236;DHT22;35067;48.134;8.378;2024-01-07T01:16:20;2.90;99.90
49236;DHT22;35067;48.134;8.378;2024-01-07T01:17:21;2.90;99.90
49236;DHT22;35067;48.134;8.378;2024-01-07T01:18:22;2.90;99.90
49236;DHT22;35067;48.134;8.378;2024-01-07T01:19:24;2.90;99.90
49236;DHT22;35067;48.134;8.378;2024-01-07T01:20:24;2.90;99.90
49236;DHT22;35067;48.134;8.378;2024-01-07T01:21:25;2.90;99.90
49236;DHT22;35067;48.134;8.378;2024-01-07T01:22:26;2.90;99.90
49236;DHT22;35067;48.134;8.378;2024-01-07T01:23:27;3.00;99.90
49236;DHT22;35067;48.134;8.378;2024-01-07T01:24:27;3.00;99.90
49236;DHT22;35067;48.134;8.378;2024-01-07T01:25:28;3.00;99.90
49236;DHT22;35067;48.134;8.378;2024-01-07T01:26:30;3.00;99.90
49236;DHT22;35067;48.134;8.378;2024-01-07T01:27:30;2.90;99.90
49236;DHT22;35067;48.134;8.378;2024-01-07T01:28:31;2.90;99.90
49236;DHT22;35067;48.134;8.378;2024-01-07T01:29:32;2.90;99.90
49236;DHT22;35067;48.134;8.378;2024-01-07T01:30:32;2.90;99.90
49236;DHT22;35067;48.134;8.378;2024-01-07T01:31:33;2.90;99.90
49236;DHT22;35067;48.134;8.378;2024-01-07T01:32:34;2.80;99.90
49236;DHT22;35067;48.134;8.378;2024-01-07T01:33:34;2.80;99.90
49236;DHT22;35067;48.134;8.378;2024-01-07T01:34:35;2.80;99.90
49236;DHT22;35067;48.134;8.378;2024-01-07T01:35:36;2.80;99.90
49236;DHT22;35067;48.134;8.378;2024-01-07T01:36:37;2.80;99.90
49236;DHT22;35067;48.134;8.378;2024-01-07T01:37:38;2.80;99.90
49236;DHT22;35067;48.134;8.378;2024-01-07T01:38:38;2.80;99.90
49236;DHT22;35067;48.134;8.378;2024-01-07T01:39:40;2.80;99.90
49236;DHT22;35067;48.134;8.378;2024-01-07T01:40:41;2.80;99.90
49236;DHT22;35067;48.134;8.378;2024-01-07T01:41:42;2.80;99.90
49236;DHT22;35067;48.134;8.378;2024-01-07T01:42:43;2.80;99.90
49236;DHT22;35067;48.134;8.378;2024-01-07T01:43:44;2.80;99.90
49236;DHT22;35067;48.134;8.378;2024-01-07T01:44:46;2.80;99.90
49236;DHT22;35067;48.134;8.378;2024-01-07T01:45:47;2.80;99.90
49236;DHT22;35067;48.134;8.378;2024-01-07T01:46:48;2.80;99.90
49236;DHT22;35067;48.134;8.378;2024-01-07T01:47:48;2.80;99.90
49236;DHT22;35067;48.134;8.378;2024-01-07T01:48:49;2.80;99.90
49236;DHT22;35067;48.134;8.378;2024-01-07T01:49:51;2.70;99.90
49236;DHT22;35067;48.134;8.378;2024-01-07T01:50:53;2.80;99.90
49236;DHT22;35067;48.134;8.378;2024-01-07T01:51:58;2.90;99.90
49236;DHT22;35067;48.134;8.378;2024-01-07T01:52:59;2.90;99.90
49236;DHT22;35067;48.134;8.378;2024-01-07T01:54:00;3.00;99.90
49236;DHT22;35067;48.134;8.378;2024-01-07T01:55:02;3.00;99.90
49236;DHT22;35067;48.134;8.378;2024-01-07T01:56:03;3.10;99.90
49236;DHT22;35067;48.134;8.378;2024-01-07T01:57:05;3.10;99.90
49236;DHT22;35067;48.134;8.378;2024-01-07T01:58:07;3.10;99.90
49236;DHT22;35067;48.134;8.378;2024-01-07T01:59:09;3.10;99.90
49236;DHT22;35067;48.134;8.378;2024-01-07T02:00:10;3.10;99.90
49236;DHT22;35067;48.134;8.378;2024-01-07T02:01:12;3.10;99.90
49236;DHT22;35067;48.134;8.378;2024-01-07T02:02:13;3.10;99.90
49236;DHT22;35067;48.134;8.378;2024-01-07T02:03:14;3.00;99.90
49236;DHT22;35067;48.134;8.378;2024-01-07T02:04:15;3.00;99.90
49236;DHT22;35067;48.134;8.378;2024-01-07T02:05:16;2.90;99.90
49236;DHT22;35067;48.134;8.378;2024-01-07T02:06:17;3.00;99.90
49236;DHT22;35067;48.134;8.378;2024-01-07T02:07:18;3.00;99.90
49236;DHT22;35067;48.134;8.378;2024-01-07T02:08:19;3.00;99.90
49236;DHT22;35067;48.134;8.378;2024-01-07T02:09:20;3.00;99.90
49236;DHT22;35067;48.134;8.378;2024-01-07T02:10:20;2.90;99.90
49236;DHT22;35067;48.134;8.378;2024-01-07T02:11:22;2.90;99.90
49236;DHT22;35067;48.134;8.378;2024-01-07T02:12:23;2.80;99.90
49236;DHT22;35067;48.134;8.378;2024-01-07T02:13:24;2.90;99.90
49236;DHT22;35067;48.134;8.378;2024-01-07T02:14:24;2.90;99.90
49236;DHT22;35067;48.134;8.378;2024-01-07T02:15:25;2.90;99.90
49236;DHT22;35067;48.134;8.378;2024-01-07T02:16:26;2.90;99.90
49236;DHT22;35067;48.134;8.378;2024-01-07T02:17:27;2.90;99.90
49236;DHT22;35067;48.134;8.378;2024-01-07T02:18:27;3.10;99.90
49236;DHT22;35067;48.134;8.378;2024-01-07T02:19:28;3.00;99.90
49236;DHT22;35067;48.134;8.378;2024-01-07T02:20:29;3.00;99.90
49236;DHT22;35067;48.134;8.378;2024-01-07T02:21:29;3.00;99.90
49236;DHT22;35067;48.134;8.378;2024-01-07T02:22:30;2.90;99.90
49236;DHT22;35067;48.134;8.378;2024-01-07T02:23:31;2.90;99.90
49236;DHT22;35067;48.134;8.378;2024-01-07T02:24:31;2.90;99.90
49236;DHT22;35067;48.134;8.378;2024-01-07T02:25:36;2.90;99.90
49236;DHT22;35067;48.134;8.378;2024-01-07T02:26:37;2.90;99.90
49236;DHT22;35067;48.134;8.378;2024-01-07T02:27:38;2.80;99.90
49236;DHT22;35067;48.134;8.378;2024-01-07T02:28:38;2.80;99.90
49236;DHT22;35067;48.134;8.378;2024-01-07T02:29:39;2.70;99.90
49236;DHT22;35067;48.134;8.378;2024-01-07T02:30:40;2.80;99.90
49236;DHT22;35067;48.134;8.378;2024-01-07T02:31:40;2.70;99.90
49236;DHT22;35067;48.134;8.378;2024-01-07T02:32:41;2.80;99.90
49236;DHT22;35067;48.134;8.378;2024-01-07T02:33:42;2.80;99.90
49236;DHT22;35067;48.134;8.378;2024-01-07T02:34:42;2.90;99.90
49236;DHT22;35067;48.134;8.378;2024-01-07T02:35:44;2.90;99.90
49236;DHT22;35067;48.134;8.378;2024-01-07T02:36:44;2.90;99.90
49236;DHT22;35067;48.134;8.378;2024-01-07T02:37:45;2.90;99.90
49236;DHT22;35067;48.134;8.378;2024-01-07T02:38:46;2.90;99.90
49236;DHT22;35067;48.134;8.378;2024-01-07T02:39:46;2.90;99.90
49236;DHT22;35067;48.134;8.378;2024-01-07T02:40:47;3.00;99.90
49236;DHT22;35067;48.134;8.378;2024-01-07T02:41:49;3.00;99.90
49236;DHT22;35067;48.134;8.378;2024-01-07T02:42:50;3.10;99.90
49236;DHT22;35067;48.134;8.378;2024-01-07T02:43:50;3.00;99.90
49236;DHT22;35067;48.134;8.378;2024-01-07T02:44:51;3.00;99.90
49236;DHT22;35067;48.134;8.378;2024-01-07T02:45:52;3.00;99.90
49236;DHT22;35067;48.134;8.378;2024-01-07T02:46:52;3.00;99.90
49236;DHT22;35067;48.134;8.378;2024-01-07T02:47:53;3.10;99.90
49236;DHT22;35067;48.134;8.378;2024-01-07T02:48:54;3.10;99.90
49236;DHT22;35067;48.134;8.378;2024-01-07T02:49:54;3.20;99.90
49236;DHT22;35067;48.134;8.378;2024-01-07T02:50:56;3.10;99.90
49236;DHT22;35067;48.134;8.378;2024-01-07T02:51:56;3.10;99.90
49236;DHT22;35067;48.134;8.378;2024-01-07T02:52:57;3.10;99.90
49236;DHT22;35067;48.134;8.378;2024-01-07T02:53:58;3.10;99.90
49236;DHT22;35067;48.134;8.378;2024-01-07T02:54:59;3.10;99.90
49236;DHT22;35067;48.134;8.378;2024-01-07T02:56:01;3.10;99.90
49236;DHT22;35067;48.134;8.378;2024-01-07T02:57:02;3.10;99.90
49236;DHT22;35067;48.134;8.378;2024-01-07T02:58:03;3.00;99.90
49236;DHT22;35067;48.134;8.378;2024-01-07T02:59:04;2.90;99.90
49236;DHT22;35067;48.134;8.378;2024-01-07T03:00:05;3.00;99.90
49236;DHT22;35067;48.134;8.378;2024-01-07T03:01:09;3.00;99.90
49236;DHT22;35067;48.134;8.378;2024-01-07T03:02:10;3.00;99.90
49236;DHT22;35067;48.134;8.378;2024-01-07T03:03:10;3.00;99.90
49236;DHT22;35067;48.134;8.378;2024-01-07T03:04:13;2.90;99.90
49236;DHT22;35067;48.134;8.378;2024-01-07T03:05:15;3.00;99.90
49236;DHT22;35067;48.134;8.378;2024-01-07T03:06:16;3.00;99.90
49236;DHT22;35067;48.134;8.378;2024-01-07T03:07:16;3.00;99.90
49236;DHT22;35067;48.134;8.378;2024-01-07T03:08:18;3.00;99.90
49236;DHT22;35067;48.134;8.378;2024-01-07T03:09:19;3.00;99.90
49236;DHT22;35067;48.134;8.378;2024-01-07T03:10:19;3.00;99.90
49236;DHT22;35067;48.134;8.378;2024-01-07T03:11:20;3.00;99.90
49236;DHT22;35067;48.134;8.378;2024-01-07T03:12:21;3.00;99.90
49236;DHT22;35067;48.134;8.378;2024-01-07T03:13:21;3.00;99.90
49236;DHT22;35067;48.134;8.378;2024-01-07T03:14:22;3.00;99.90
49236;DHT22;35067;48.134;8.378;2024-01-07T03:15:23;3.00;99.90
49236;DHT22;35067;48.134;8.378;2024-01-07T03:16:25;2.90;99.90
49236;DHT22;35067;48.134;8.378;2024-01-07T03:17:27;2.90;99.90
49236;DHT22;35067;48.134;8.378;2024-01-07T03:18:27;2.90;99.90
49236;DHT22;35067;48.134;8.378;2024-01-07T03:19:30;2.80;99.90
49236;DHT22;35067;48.134;8.378;2024-01-07T03:20:30;2.70;99.90
49236;DHT22;35067;48.134;8.378;2024-01-07T03:21:31;2.70;99.90
49236;DHT22;35067;48.134;8.378;2024-01-07T03:22:31;2.80;99.90
49236;DHT22;35067;48.134;8.378;2024-01-07T03:23:32;2.90;99.90
49236;DHT22;35067;48.134;8.378;2024-01-07T03:24:33;2.90;99.90
49236;DHT22;35067;48.134;8.378;2024-01-07T03:25:34;3.00;99.90
49236;DHT22;35067;48.134;8.378;2024-01-07T03:26:35;3.00;99.90
49236;DHT22;35067;48.134;8.378;2024-01-07T03:27:36;3.00;99.90
49236;DHT22;35067;48.134;8.378;2024-01-07T03:28:37;3.10;99.90
49236;DHT22;35067;48.134;8.378;2024-01-07T03:29:37;3.10;99.90
49236;DHT22;35067;48.134;8.378;2024-01-07T03:30:38;3.10;99.90
49236;DHT22;35067;48.134;8.378;2024-01-07T03:31:39;3.00;99.90
49236;DHT22;35067;48.134;8.378;2024-01-07T03:32:39;3.10;99.90
49236;DHT22;35067;48.134;8.378;2024-01-07T03:33:41;3.10;99.90
49236;DHT22;35067;48.134;8.378;2024-01-07T03:34:42;3.10;99.90
49236;DHT22;35067;48.134;8.378;2024-01-07T03:35:43;3.10;99.90
49236;DHT22;35067;48.134;8.378;2024-01-07T03:36:45;3.10;99.90
49236;DHT22;35067;48.134;8.378;2024-01-07T03:37:46;3.10;99.90
49236;DHT22;35067;48.134;8.378;2024-01-07T03:38:46;3.00;99.90
49236;DHT22;35067;48.134;8.378;2024-01-07T03:39:47;3.00;99.90
49236;DHT22;35067;48.134;8.378;2024-01-07T03:40:48;3.00;99.90
49236;DHT22;35067;48.134;8.378;2024-01-07T03:41:48;3.00;99.90
49236;DHT22;35067;48.134;8.378;2024-01-07T03:42:49;3.00;99.90
49236;DHT22;35067;48.134;8.378;2024-01-07T03:43:50;2.90;99.90
49236;DHT22;35067;48.134;8.378;2024-01-07T03:44:51;2.80;99.90
49236;DHT22;35067;48.134;8.378;2024-01-07T03:45:51;2.80;99.90
49236;DHT22;35067;48.134;8.378;2024-01-07T03:46:52;2.70;99.90
49236;DHT22;35067;48.134;8.378;2024-01-07T03:47:52;2.70;99.90
49236;DHT22;35067;48.134;8.378;2024-01-07T03:48:53;2.80;99.90
49236;DHT22;35067;48.134;8.378;2024-01-07T03:49:54;2.80;99.90
49236;DHT22;35067;48.134;8.378;2024-01-07T03:50:55;2.90;99.90
49236;DHT22;35067;48.134;8.378;2024-01-07T03:51:55;2.90;99.90
49236;DHT22;35067;48.134;8.378;2024-01-07T03:52:56;2.90;99.90
49236;DHT22;35067;48.134;8.378;2024-01-07T03:53:57;2.90;99.90
49236;DHT22;35067;48.134;8.378;2024-01-07T03:54:57;2.90;99.90
49236;DHT22;35067;48.134;8.378;2024-01-07T03:55:58;2.80;99.90
49236;DHT22;35067;48.134;8.378;2024-01-07T03:56:59;2.80;99.90
49236;DHT22;35067;48.134;8.378;2024-01-07T03:57:59;2.80;99.90
49236;DHT22;35067;48.134;8.378;2024-01-07T03:59:00;2.80;99.90
49236;DHT22;35067;48.134;8.378;2024-01-07T04:00:01;2.90;99.90
49236;DHT22;35067;48.134;8.378;2024-01-07T04:01:01;2.90;99.90
49236;DHT22;35067;48.134;8.378;2024-01-07T04:02:02;2.80;99.90
49236;DHT22;35067;48.134;8.378;2024-01-07T04:03:03;2.80;99.90
49236;DHT22;35067;48.134;8.378;2024-01-07T04:04:04;2.80;99.90
49236;DHT22;35067;48.134;8.378;2024-01-07T04:05:05;2.80;99.90
49236;DHT22;35067;48.134;8.378;2024-01-07T04:06:07;2.80;99.90
49236;DHT22;35067;48.134;8.378;2024-01-07T04:07:08;2.80;99.90
49236;DHT22;35067;48.134;8.378;2024-01-07T04:08:12;2.90;99.90
49236;DHT22;35067;48.134;8.378;2024-01-07T04:09:12;2.90;99.90
49236;DHT22;35067;48.134;8.378;2024-01-07T04:10:14;2.90;99.90
49236;DHT22;35067;48.134;8.378;2024-01-07T04:11:16;2.90;99.90
49236;DHT22;35067;48.134;8.378;2024-01-07T04:12:17;2.90;99.90
49236;DHT22;35067;48.134;8.378;2024-01-07T04:13:18;2.80;99.90
49236;DHT22;35067;48.134;8.378;2024-01-07T04:14:18;2.90;99.90
49236;DHT22;35067;48.134;8.378;2024-01-07T04:15:20;2.80;99.90
49236;DHT22;35067;48.134;8.378;2024-01-07T04:16:21;2.90;99.90
49236;DHT22;35067;48.134;8.378;2024-01-07T04:17:22;2.90;99.90
49236;DHT22;35067;48.134;8.378;2024-01-07T04:18:23;2.90;99.90
49236;DHT22;35067;48.134;8.378;2024-01-07T04:19:24;2.90;99.90
49236;DHT22;35067;48.134;8.378;2024-01-07T04:20:25;2.90;99.90
49236;DHT22;35067;48.134;8.378;2024-01-07T04:21:25;2.90;99.90
49236;DHT22;35067;48.134;8.378;2024-01-07T04:22:26;2.90;99.90
49236;DHT22;35067;48.134;8.378;2024-01-07T04:23:27;2.90;99.90
49236;DHT22;35067;48.134;8.378;2024-01-07T04:24:28;3.00;99.90
49236;DHT22;35067;48.134;8.378;2024-01-07T04:25:29;3.00;99.90
49236;DHT22;35067;48.134;8.378;2024-01-07T04:26:29;2.90;99.90
49236;DHT22;35067;48.134;8.378;2024-01-07T04:27:30;2.90;99.90
49236;DHT22;35067;48.134;8.378;2024-01-07T04:28:31;2.90;99.90
49236;DHT22;35067;48.134;8.378;2024-01-07T04:29:31;2.90;99.90
49236;DHT22;35067;48.134;8.378;2024-01-07T04:30:32;2.90;99.90
49236;DHT22;35067;48.134;8.378;2024-01-07T04:31:33;2.90;99.90
49236;DHT22;35067;48.134;8.378;2024-01-07T04:32:33;2.90;99.90
49236;DHT22;35067;48.134;8.378;2024-01-07T04:33:34;2.90;99.90
49236;DHT22;35067;48.134;8.378;2024-01-07T04:34:35;2.90;99.90
49236;DHT22;35067;48.134;8.378;2024-01-07T04:35:35;2.90;99.90
49236;DHT22;35067;48.134;8.378;2024-01-07T04:36:36;2.90;99.90
49236;DHT22;35067;48.134;8.378;2024-01-07T04:37:38;2.90;99.90
49236;DHT22;35067;48.134;8.378;2024-01-07T04:38:38;2.90;99.90
49236;DHT22;35067;48.134;8.378;2024-01-07T04:39:39;2.80;99.90
49236;DHT22;35067;48.134;8.378;2024-01-07T04:40:40;2.80;99.90
49236;DHT22;35067;48.134;8.378;2024-01-07T04:41:40;2.80;99.90
49236;DHT22;35067;48.134;8.378;2024-01-07T04:42:41;2.80;99.90
49236;DHT22;35067;48.134;8.378;2024-01-07T04:43:42;2.70;99.90
49236;DHT22;35067;48.134;8.378;2024-01-07T04:44:44;2.80;99.90
49236;DHT22;35067;48.134;8.378;2024-01-07T04:45:44;2.70;99.90
49236;DHT22;35067;48.134;8.378;2024-01-07T04:46:45;2.70;99.90
49236;DHT22;35067;48.134;8.378;2024-01-07T04:47:47;2.70;99.90
49236;DHT22;35067;48.134;8.378;2024-01-07T04:48:48;2.70;99.90
49236;DHT22;35067;48.134;8.378;2024-01-07T04:49:49;2.70;99.90
49236;DHT22;35067;48.134;8.378;2024-01-07T04:50:49;2.70;99.90
49236;DHT22;35067;48.134;8.378;2024-01-07T04:51:50;2.70;99.90
49236;DHT22;35067;48.134;8.378;2024-01-07T04:52:51;2.50;99.90
49236;DHT22;35067;48.134;8.378;2024-01-07T04:53:52;2.40;99.90
49236;DHT22;35067;48.134;8.378;2024-01-07T04:54:53;2.40;99.90
49236;DHT22;35067;48.134;8.378;2024-01-07T04:55:54;2.40;99.90
49236;DHT22;35067;48.134;8.378;2024-01-07T04:56:55;2.50;99.90
49236;DHT22;35067;48.134;8.378;2024-01-07T04:57:56;2.50;99.90
49236;DHT22;35067;48.134;8.378;2024-01-07T04:58:57;2.50;99.90
49236;DHT22;35067;48.134;8.378;2024-01-07T04:59:57;2.50;99.90
49236;DHT22;35067;48.134;8.378;2024-01-07T05:00:58;2.60;99.90
49236;DHT22;35067;48.134;8.378;2024-01-07T05:01:59;2.60;99.90
49236;DHT22;35067;48.134;8.378;2024-01-07T05:02:59;2.60;99.90
49236;DHT22;35067;48.134;8.378;2024-01-07T05:04:00;2.60;99.90
49236;DHT22;35067;48.134;8.378;2024-01-07T05:05:01;2.60;99.90
49236;DHT22;35067;48.134;8.378;2024-01-07T05:06:01;2.60;99.90
49236;DHT22;35067;48.134;8.378;2024-01-07T05:07:03;2.60;99.90
49236;DHT22;35067;48.134;8.378;2024-01-07T05:08:04;2.50;99.90
49236;DHT22;35067;48.134;8.378;2024-01-07T05:09:05;2.60;99.90
49236;DHT22;35067;48.134;8.378;2024-01-07T05:10:06;2.50;99.90
49236;DHT22;35067;48.134;8.378;2024-01-07T05:11:07;2.60;99.90
49236;DHT22;35067;48.134;8.378;2024-01-07T05:12:08;2.60;99.90
49236;DHT22;35067;48.134;8.378;2024-01-07T05:13:08;2.60;99.90
49236;DHT22;35067;48.134;8.378;2024-01-07T05:14:11;2.50;99.90
49236;DHT22;35067;48.134;8.378;2024-01-07T05:15:12;2.60;99.90
49236;DHT22;35067;48.134;8.378;2024-01-07T05:16:19;2.60;99.90
49236;DHT22;35067;48.134;8.378;2024-01-07T05:17:20;2.50;99.90
49236;DHT22;35067;48.134;8.378;2024-01-07T05:18:22;2.50;99.90
49236;DHT22;35067;48.134;8.378;2024-01-07T05:19:23;2.50;99.90
49236;DHT22;35067;48.134;8.378;2024-01-07T05:20:23;2.60;99.90
49236;DHT22;35067;48.134;8.378;2024-01-07T05:21:24;2.50;99.90
49236;DHT22;35067;48.134;8.378;2024-01-07T05:22:25;2.50;99.90
49236;DHT22;35067;48.134;8.378;2024-01-07T05:23:25;2.50;99.90
49236;DHT22;35067;48.134;8.378;2024-01-07T05:24:26;2.40;99.90
49236;DHT22;35067;48.134;8.378;2024-01-07T05:25:27;2.40;99.90
49236;DHT22;35067;48.134;8.378;2024-01-07T05:26:27;2.40;99.90
49236;DHT22;35067;48.134;8.378;2024-01-07T05:27:28;2.30;99.90
49236;DHT22;35067;48.134;8.378;2024-01-07T05:28:29;2.30;99.90
49236;DHT22;35067;48.134;8.378;2024-01-07T05:29:29;2.30;99.90
49236;DHT22;35067;48.134;8.378;2024-01-07T05:30:30;2.30;99.90
49236;DHT22;35067;48.134;8.378;2024-01-07T05:31:31;2.30;99.90
49236;DHT22;35067;48.134;8.378;2024-01-07T05:32:32;2.40;99.90
49236;DHT22;35067;48.134;8.378;2024-01-07T05:33:32;2.30;99.90
49236;DHT22;35067;48.134;8.378;2024-01-07T05:34:33;2.30;99.90
49236;DHT22;35067;48.134;8.378;2024-01-07T05:35:34;2.40;99.90
49236;DHT22;35067;48.134;8.378;2024-01-07T05:36:35;2.40;99.90
49236;DHT22;35067;48.134;8.378;2024-01-07T05:37:36;2.30;99.90
49236;DHT22;35067;48.134;8.378;2024-01-07T05:38:36;2.30;99.90
49236;DHT22;35067;48.134;8.378;2024-01-07T05:39:37;2.40;99.90
49236;DHT22;35067;48.134;8.378;2024-01-07T05:40:38;2.30;99.90
49236;DHT22;35067;48.134;8.378;2024-01-07T05:41:38;2.40;99.90
49236;DHT22;35067;48.134;8.378;2024-01-07T05:42:39;2.30;99.90
49236;DHT22;35067;48.134;8.378;2024-01-07T05:43:40;2.30;99.90
49236;DHT22;35067;48.134;8.378;2024-01-07T05:44:40;2.20;99.90
49236;DHT22;35067;48.134;8.378;2024-01-07T05:45:41;2.30;99.90
49236;DHT22;35067;48.134;8.378;2024-01-07T05:46:42;2.20;99.90
49236;DHT22;35067;48.134;8.378;2024-01-07T05:47:43;2.20;99.90
49236;DHT22;35067;48.134;8.378;2024-01-07T05:48:47;2.20;99.90
49236;DHT22;35067;48.134;8.378;2024-01-07T05:49:49;2.20;99.90
49236;DHT22;35067;48.134;8.378;2024-01-07T05:50:52;2.20;99.90
49236;DHT22;35067;48.134;8.378;2024-01-07T05:51:53;2.30;99.90
49236;DHT22;35067;48.134;8.378;2024-01-07T05:52:54;2.30;99.90
49236;DHT22;35067;48.134;8.378;2024-01-07T05:53:55;2.30;99.90
49236;DHT22;35067;48.134;8.378;2024-01-07T05:54:55;2.30;99.90
49236;DHT22;35067;48.134;8.378;2024-01-07T05:55:56;2.30;99.90
49236;DHT22;35067;48.134;8.378;2024-01-07T05:56:57;2.40;99.90
49236;DHT22;35067;48.134;8.378;2024-01-07T05:57:57;2.30;99.90
49236;DHT22;35067;48.134;8.378;2024-01-07T05:58:58;2.30;99.90
49236;DHT22;35067;48.134;8.378;2024-01-07T05:59:59;2.30;99.90
49236;DHT22;35067;48.134;8.378;2024-01-07T06:00:59;2.30;99.90
49236;DHT22;35067;48.134;8.378;2024-01-07T06:02:00;2.30;99.90
49236;DHT22;35067;48.134;8.378;2024-01-07T06:03:01;2.30;99.90
49236;DHT22;35067;48.134;8.378;2024-01-07T06:04:02;2.30;99.90
49236;DHT22;35067;48.134;8.378;2024-01-07T06:05:03;2.30;99.90
49236;DHT22;35067;48.134;8.378;2024-01-07T06:06:04;2.20;99.90
49236;DHT22;35067;48.134;8.378;2024-01-07T06:07:05;2.20;99.90
49236;DHT22;35067;48.134;8.378;2024-01-07T06:08:06;2.20;99.90
49236;DHT22;35067;48.134;8.378;2024-01-07T06:09:07;2.20;99.90
49236;DHT22;35067;48.134;8.378;2024-01-07T06:10:08;2.20;99.90
49236;DHT22;35067;48.134;8.378;2024-01-07T06:11:09;2.30;99.90
49236;DHT22;35067;48.134;8.378;2024-01-07T06:12:12;2.20;99.90
49236;DHT22;35067;48.134;8.378;2024-01-07T06:13:13;2.20;99.90
49236;DHT22;35067;48.134;8.378;2024-01-07T06:14:13;2.20;99.90
49236;DHT22;35067;48.134;8.378;2024-01-07T06:15:14;2.20;99.90
49236;DHT22;35067;48.134;8.378;2024-01-07T06:16:15;2.30;99.90
49236;DHT22;35067;48.134;8.378;2024-01-07T06:17:15;2.30;99.90
49236;DHT22;35067;48.134;8.378;2024-01-07T06:18:16;2.30;99.90
49236;DHT22;35067;48.134;8.378;2024-01-07T06:19:17;2.30;99.90
49236;DHT22;35067;48.134;8.378;2024-01-07T06:20:18;2.30;99.90
49236;DHT22;35067;48.134;8.378;2024-01-07T06:21:18;2.30;99.90
49236;DHT22;35067;48.134;8.378;2024-01-07T06:22:19;2.20;99.90
49236;DHT22;35067;48.134;8.378;2024-01-07T06:23:20;2.20;99.90
49236;DHT22;35067;48.134;8.378;2024-01-07T06:24:20;2.20;99.90
49236;DHT22;35067;48.134;8.378;2024-01-07T06:25:21;2.30;99.90
49236;DHT22;35067;48.134;8.378;2024-01-07T06:26:22;2.30;99.90
49236;DHT22;35067;48.134;8.378;2024-01-07T06:27:22;2.30;99.90
49236;DHT22;35067;48.134;8.378;2024-01-07T06:28:23;2.30;99.90
49236;DHT22;35067;48.134;8.378;2024-01-07T06:29:24;2.30;99.90
49236;DHT22;35067;48.134;8.378;2024-01-07T06:30:24;2.30;99.90